東京国際空港の過去48時間の天気

東京国際空港 (Tokyo/Intl)

現在時刻: 12/12 00:49 JST (12/11 15:49 UTC) 以下の時間は現地時間です。

過去48時間のMETAR気象情報
時間 風向 風速(m/s) 視程 気温(℃) 湿度(%) 気圧(hPa) 天気現象
12 00:30 北西 3 10km以上 12 88 1008
12 00:00 西北西 4 10km以上 12 88 1009
11 23:30 西北西 4 10km以上 13 82 1009
11 23:00 西 2 10km以上 12 88 1009
11 22:30 西北西 2 10km以上 12 94 1009
11 22:00 西南西 2 10km以上 13 88 1009
11 21:30 西 2 10km以上 13 88 1010
11 21:00 北西 3 10km以上 13 94 1010
11 20:30 北北西 2 10km以上 13 88 1010
11 20:00 西 3 10km以上 13 94 1011 周辺でしゅう雨
11 19:30 3 10km以上 13 88 1011 周辺でしゅう雨
11 19:00 北北東 4 10km以上 14 88 1011 弱いしゅう雨
11 18:43 西北西 4 6000m 13 88 1013 しゅう雨
11 18:30 北西 4 8000m 13 88 1013 弱いしゅう雨
11 18:13 北北西 3 10km以上 14 82 1013 弱いしゅう雨
11 18:00 北西 4 6000m 14 82 1013 弱い雷雨 もや
11 17:45 北西 3 5000m 15 77 1013 しゅう雨 もや
11 17:30 北北西 3 10km以上 15 77 1013
11 17:00 3 10km以上 15 77 1012
11 16:30 北北東 4 10km以上 15 77 1012
11 16:00 北北東 3 10km以上 15 77 1013
11 15:30 4 10km以上 15 77 1013
11 15:00 北北東 3 10km以上 15 77 1013
11 14:30 北北東 2 10km以上 15 77 1013
11 14:00 北北東 2 10km以上 15 77 1014
11 13:30 2 10km以上 15 72 1014
11 13:00 3 10km以上 15 77 1015
11 12:30 北東 3 10km以上 15 72 1015
11 12:00 北北東 3 10km以上 15 72 1016
11 11:30 3 10km以上 15 72 1016
11 11:00 3 10km以上 14 77 1017
11 10:30 4 10km以上 14 77 1018
11 10:00 3 10km以上 13 82 1018
11 09:30 4 10km以上 13 82 1018
11 09:00 北北西 3 10km以上 13 77 1019
11 08:30 北北西 3 10km以上 13 77 1019
11 08:00 北西 4 10km以上 11 82 1019
11 07:30 北西 4 10km以上 11 82 1019
11 07:00 北西 3 10km以上 11 82 1019
11 06:30 3 10km以上 11 82 1019
11 06:00 5 10km以上 12 82 1018
11 05:30 4 10km以上 12 82 1018
11 05:00 北北東 3 10km以上 12 82 1018
11 04:30 3 10km以上 13 77 1018
11 04:00 5 10km以上 13 77 1018
11 03:30 4 10km以上 13 77 1018
11 03:00 3 10km以上 13 82 1018
11 02:30 北北西 2 10km以上 12 82 1018
RJTT 111530Z 31005KT 9999 FEW015 12/10 Q1008 NOSIG RMK 1CU015 A2978
RJTT 111500Z 29007KT 9999 FEW015 BKN025 12/10 Q1009 NOSIG RMK 1CU015 7SC025 A2980
RJTT 111430Z 29008KT 9999 FEW015 BKN025 13/10 Q1009 NOSIG RMK 1CU015 7SC025 A2981 MOD TURB OBS AT 1410Z 20NM NE MESSE BTN FL230 AND FL180 IN DES BY B737
RJTT 111400Z 28004KT 9999 FEW020 SCT130 12/10 Q1009 NOSIG RMK 2CU020 4AC130 A2979
RJTT 111330Z 29003KT 250V330 9999 FEW020 12/11 Q1009 NOSIG RMK 2CU020 A2980
RJTT 111300Z 25003KT 210V280 9999 FEW015 SCT021 13/11 Q1009 NOSIG RMK 1CU015 3SC021 A2982
RJTT 111230Z 27003KT 9999 FEW015 BKN021 13/11 Q1010 NOSIG RMK 1CU015 7SC021 A2983 MOD TURB OBS AT 1225Z SPENS BTN 22000FT AND 20000FT BY B738
RJTT 111200Z 32005KT 9999 FEW015 BKN020 13/12 Q1010 NOSIG RMK 1CU015 7CU020 A2984
RJTT 111130Z 33003KT 290V350 9999 FEW010 BKN015 13/11 Q1010 NOSIG RMK 1CU010 7CU015 A2984
RJTT 111100Z 28005KT 9999 VCSH FEW010 BKN015 13/12 Q1011 NOSIG RMK 1CU010 7CU015 A2987
RJTT 111030Z 35006KT 9999 VCSH FEW015 SCT100 BKN130 13/11 Q1011 NOSIG RMK 1CU015 4AC100 7AC130 A2987 MOD TURB OBS AT 1008Z AROUND DAIGO BTN FL250 AND FL230 IN DES BY B763
RJTT 111000Z 03008KT 350V060 9999 -SHRA FEW015 BKN080 BKN120 14/12 Q1011 TEMPO TL1030 TS RMK 1CU015 5AC080 7AC120 A2986 P/FR
RJTT 110943Z 30007KT 250V330 6000 SHRA FEW015 SCT017 BKN080 13/11 Q1013 RMK 1CU015 3CU017 7AC080 A2991
RJTT 110930Z 31008KT 270V330 8000 -SHRA FEW015 SCT017 BKN080 13/11 Q1013 TEMPO TL1030 4000 -TSRA BR RMK 1CU015 3CU017 7AC080 A2994
RJTT 110913Z 33006KT 9999 -SHRA FEW015 SCT018 FEW020CB BKN100 14/11 Q1013 RMK 1CU015 3CU018 1CB020 7AC100 A2993 MOD TURB OBS AT 0855Z OVER SELNO BTN 22000FT AND 21000FT IN DES BY B738 CB 50KM E MOV NE
RJTT 110900Z 32008KT 6000 -TSRA BR FEW015 BKN018 FEW020CB 14/11 Q1013 TEMPO 4000 TSRA BR RMK 1CU015 5CU018 1CB020 A2993 FBL TS 20KM S MOV NE BR S
RJTT 110845Z 32006KT 5000 SHRA BR FEW015 SCT018 FEW020CB BKN050 15/11 Q1013 RMK 1CU015 4CU018 1CB020 7SC050 A2993 9999NW-NE CB 30KM E MOV NE
RJTT 110830Z 33005KT 9999 FEW015 SCT018 FEW020CB BKN050 15/11 Q1013 NOSIG RMK 1CU015 3CU018 1CB020 7SC050 A2993 LIGHTNING 50KM E MOV NE
RJTT 110800Z 35006KT 9999 FEW020 BKN060 BKN090 15/11 Q1012 NOSIG RMK 1CU020 5SC060 6AC090 A2991 MOD TURB OBS AT 0744Z OVER SELNO FL230 BY B777 AND OBS AT 0748Z OVER SPENS FL220 BY B763
RJTT 110730Z 02007KT 9999 FEW020 SCT060 BKN100 15/11 Q1012 NOSIG RMK 1CU020 4SC060 6AC100 A2991
RJTT 110700Z 02006KT 9999 FEW020 BKN/// 15/11 Q1013 NOSIG RMK 1CU020 A2992
RJTT 110630Z 36007KT 9999 FEW020 BKN/// 15/11 Q1013 NOSIG RMK 1CU020 A2992
RJTT 110600Z 02005KT 9999 FEW015 BKN/// 15/11 Q1013 NOSIG RMK 1CU015 A2994
RJTT 110530Z 03004KT 9999 FEW015 BKN/// 15/11 Q1013 NOSIG RMK 1CU015 A2994
RJTT 110500Z 02003KT 9999 FEW010 BKN/// 15/11 Q1014 NOSIG RMK 1CU010 A2995
RJTT 110430Z 36004KT 9999 FEW010 BKN/// 15/10 Q1014 NOSIG
RJTT 110400Z 01005KT 9999 FEW010 BKN012 BKN/// 15/11 Q1015 BECMG FEW010 SCT015
RJTT 110330Z 04006KT 9999 FEW010 BKN014 BKN/// 15/10 Q1015 NOSIG
RJTT 110300Z 02006KT 9999 FEW012 BKN015 BKN/// 15/10 Q1016 NOSIG RMK 1CU012 5SC015 A3001
RJTT 110230Z 36006KT 9999 FEW015 BKN/// 15/10 Q1016 NOSIG RMK 1CU015 A3002
RJTT 110200Z 36006KT 9999 FEW015 BKN/// 14/10 Q1017 NOSIG RMK 1CU015 A3005
RJTT 110130Z 35008KT 9999 FEW015 BKN/// 14/10 Q1018 NOSIG
RJTT 110100Z 35006KT 9999 FEW015 BKN/// 13/10 Q1018 NOSIG RMK 1CU015 A3008
RJTT 110030Z 35008KT 9999 FEW015 BKN/// 13/10 Q1018 NOSIG RMK 1CU015 A3008
RJTT 110000Z 33006KT 9999 FEW015 BKN/// 13/09 Q1019 NOSIG RMK 1CU015 A3010
RJTT 102330Z 33006KT 9999 FEW010 BKN/// 13/09 Q1019 NOSIG RMK 1CU010 A3010
RJTT 102300Z 32008KT 9999 FEW010 BKN015 11/08 Q1019 TEMPO FEW008 BKN014 RMK 1CU010 6SC015 A3010
RJTT 102230Z 32007KT 9999 FEW010 11/08 Q1019 NOSIG RMK 1CU010 A3010
RJTT 102200Z 31006KT 9999 FEW010 11/08 Q1019 NOSIG RMK 1CU010 A3010
RJTT 102130Z 35006KT 9999 FEW015 SCT/// 11/08 Q1019 NOSIG RMK 1CU015 A3009
RJTT 102100Z 01009KT 9999 FEW015 BKN/// 12/09 Q1018 NOSIG RMK 1CU015 A3009
RJTT 102030Z 01008KT 9999 FEW015 SCT020 BKN/// 12/09 Q1018 NOSIG RMK 1CU015 3SC020 A3008
RJTT 102000Z 03006KT 9999 FEW015 BKN020 BKN/// 12/09 Q1018 NOSIG RMK 1CU015 5SC020 A3008
RJTT 101930Z 01006KT 9999 FEW015 BKN020 13/09 Q1018 NOSIG RMK 1CU015 7SC020 A3009
RJTT 101900Z 35010KT 9999 FEW010 BKN015 13/09 Q1018 NOSIG RMK 1CU010 7SC015 A3008
RJTT 101830Z 01007KT 9999 FEW010 BKN015 13/09 Q1018 NOSIG RMK 1CU010 7SC015 A3007
RJTT 101800Z 01006KT 9999 FEW010 BKN015 BKN/// 13/10 Q1018 NOSIG RMK 1CU010 5SC015 A3008
RJTT 101730Z 34004KT 9999 FEW010 BKN015 BKN/// 12/09 Q1018 NOSIG RMK 1CU010 5SC015 A3008